Daily Summary

Last 30 Days

Daily Data | Pacific/Honolulu
as of 1/29/23 7:47 PM HST
Date Daily Max Temp (°F) Time of Max Temp Daily Min Temp (°F) Time of Min Temp Daily Rain (In) Season Precip (In) Wind Spd (mph) Daily Max Wind (mph) Time of Max Wind Max Wind Dir (°) Daily Solar Rad (Cal/cm2) Daily ETo (in) Dew Pt (°F) Max RH (%) Min RH (%) Max Press (inHg) Time of Max Press Min Press (inHg) Time of Min Press MinBV Day (V)
1/28/23 73.2 1524 69.3 2115 0.26 0.62 8.3 35.1 1121 NE | 53 187 0.070 65.6 90 76 30.12 1031 30.00 1533 12.7
1/27/23 75.3 1337 68.0 0553 0.00 0.36 10.8 29.1 1504 NE | 34 446 0.155 62.5 84 63 30.11 2221 29.97 1457 12.7
1/26/23 76.1 1134 70.9 2312 0.00 0.36 11.7 30.3 1703 NNE | 25 446 0.180 61.4 77 57 30.08 2159 29.95 1448 12.7
1/25/23 79.4 1511 68.8 0707 0.00 0.36 4.4 31.8 2116 NNE | 30 243 0.093 65.5 88 62 30.07 1030 29.92 1514 12.7
1/24/23 82.3 1309 69.9 0449 0.00 0.36 2.8 12.9 1414 SSW | 197 433 0.138 68.1 89 62 30.09 1003 29.96 1449 12.6
1/23/23 80.9 1419 68.4 0707 0.00 0.36 3.3 11.8 1156 WSW | 256 382 0.121 67.2 89 65 30.09 1000 29.99 1419 12.7
1/22/23 82.9 1254 69.4 0737 0.00 0.36 4.6 21.4 1501 NE | 35 421 0.147 66.5 87 55 30.11 0959 29.97 1444 12.6
1/21/23 82.1 1231 73.4 2357 0.00 0.36 4.3 16.0 1118 SSW | 200 390 0.136 68.1 81 60 30.07 2309 29.95 1510 12.7
1/20/23 82.1 1232 70.9 0519 0.00 0.36 4.4 17.8 1034 SSE | 166 408 0.140 68.2 92 58 30.06 1022 29.94 1511 12.6
1/19/23 82.9 1500 69.9 0721 0.00 0.36 3.8 10.9 1159 S | 189 429 0.138 68.4 91 61 30.08 1002 29.96 1519 12.6
1/18/23 84.0 1232 68.7 0633 0.00 0.36 2.7 13.0 1319 ESE | 105 432 0.140 66.2 88 53 30.09 0003 29.95 1459 12.7
1/17/23 83.2 1136 68.8 0633 0.00 0.36 3.9 11.5 1342 SSE | 156 427 0.136 67.9 91 54 30.15 0926 30.01 1455 12.7
1/16/23 80.8 1534 69.0 0639 0.00 0.36 3.6 14.2 1253 NE | 39 295 0.096 68.2 90 67 30.19 1003 30.05 1542 12.7
1/15/23 80.7 1337 71.6 2340 0.00 0.36 4.4 15.0 1108 NE | 40 262 0.099 66.8 89 60 30.19 1017 30.05 1501 12.7
1/14/23 82.4 1302 65.2 0719 0.00 0.36 3.0 13.9 1312 NNE | 30 344 0.116 63.1 89 44 30.20 0943 30.07 1456 12.7
1/13/23 81.5 1414 65.5 0727 0.00 0.36 3.4 14.5 1610 NE | 36 330 0.111 62.2 87 52 30.18 0922 30.03 1542 12.7
1/12/23 81.5 1436 66.5 0641 0.00 0.36 3.4 18.4 0210 NE | 43 426 0.141 60.0 79 43 30.13 0005 29.99 1511 12.7
1/11/23 79.2 1236 69.3 0501 0.00 0.36 4.8 30.6 1350 NE | 44 395 0.135 63.0 84 57 30.18 0002 30.03 1524 12.6
1/10/23 82.4 1258 69.9 0419 0.00 0.36 3.0 12.3 1401 SSW | 201 407 0.139 62.7 81 46 30.20 2214 30.07 1542 12.7
1/9/23 81.1 1323 68.2 0725 0.00 0.36 3.6 11.7 0306 NNE | 16 396 0.132 64.4 84 59 30.20 0925 30.07 1419 12.7
1/8/23 81.7 1415 66.1 0739 0.00 0.36 3.2 18.0 1637 NE | 34 356 0.120 64.8 90 60 30.21 0954 30.10 1451 12.7
1/7/23 82.0 1333 70.2 2334 0.00 0.36 4.1 15.2 0938 NNE | 28 366 0.126 66.3 84 59 30.23 0912 30.10 1526 12.7
1/6/23 81.8 1220 72.3 0358 0.00 0.36 3.8 18.4 1244 NE | 40 411 0.140 67.6 86 61 30.23 2235 30.10 1453 12.7
1/5/23 82.9 1408 70.0 0651 0.00 0.36 3.6 15.4 1621 NE | 37 304 0.105 68.7 94 59 30.18 2247 30.04 1452 12.6
1/4/23 76.4 1538 70.8 0458 0.34 0.36 1.9 11.8 1718 NE | 54 220 0.066 69.6 95 78 30.11 2314 30.00 1519 12.6
1/3/23 81.5 1307 68.0 0658 0.02 0.02 3.4 18.0 1530 NE | 39 404 0.134 65.8 90 59 30.11 0928 30.00 1519 12.6
1/2/23 83.6 1352 72.4 2344 0.00 0.00 3.5 17.8 0520 NNE | 29 448 0.148 67.6 86 56 30.13 0850 30.00 1526 12.7
1/1/23 80.5 1327 68.9 0444 0.00 0.00 2.9 16.0 1600 NE | 38 245 0.085 67.3 90 62 30.16 0840 30.04 1504 12.7
12/31/22 84.7 1155 68.7 0736 0.00 18.94 3.3 13.0 1630 NE | 35 299 0.108 66.6 86 56 30.15 2215 30.02 1441 12.7
12/30/22 80.7 1119 71.5 0350 0.00 18.94 5.9 22.7 1334 NNE | 29 355 0.138 65.5 84 52 30.13 0922 30.02 1417 12.7
Max 84.7 - 73.4 - 0.34 18.94 11.7 35.1 - - 448 0.180 69.6 95 78 30.23 - 30.10 - 12.7
Avg - - - - - - 4.3 - - - - - 65.9 - - - - - - -
Min 73.2 - 65.2 - 0.00 0.00 1.9 10.9 - - 187 0.066 60.0 77 43 30.06 - 29.92 - 12.6